Time;durP1;ratioP1;P1;durP2;ratioP2;P2;SDS_P1;SDS_P2;PMS_P1;PMS_P2;Temp;Humidity;BMP_temperature;BMP_pressure;BME280_temperature;BME280_humidity;BME280_pressure;Samples;Min_cycle;Max_cycle;Signal;HPM_P1;HPM_P2
2021/05/28 00:02:22;;;;;;;17.83;9.23;;;;;;;;;;4413221;32;20177;-66
2021/05/28 00:04:48;;;;;;;21.80;9.77;;;;;;;;;;4419671;32;20582;-66
2021/05/28 00:07:13;;;;;;;18.73;10.50;;;;;;;;;;4433619;32;20130;-66
2021/05/28 00:09:40;;;;;;;22.40;10.63;;;;;;;;;;4433384;32;20481;-65
2021/05/28 00:12:05;;;;;;;21.57;10.57;;;;;;;;;;4420998;32;20252;-65
2021/05/28 00:14:31;;;;;;;26.70;11.93;;;;;;;;;;4419026;32;20488;-65
2021/05/28 00:16:56;;;;;;;21.40;11.00;;;;;;;;;;4432665;32;20134;-66
2021/05/28 00:19:21;;;;;;;31.20;13.20;;;;;;;;;;4433777;32;20212;-66
2021/05/28 00:21:46;;;;;;;25.75;14.48;;;;;;;;;;4429196;32;20602;-67
2021/05/28 00:24:11;;;;;;;27.73;14.83;;;;;;;;;;4417867;32;20291;-65
2021/05/28 00:26:37;;;;;;;34.83;17.77;;;;;;;;;;4431230;32;20138;-65
2021/05/28 00:29:03;;;;;;;31.03;18.13;;;;;;;;;;4431210;32;20234;-66
2021/05/28 00:31:28;;;;;;;41.15;20.67;;;;;;;;;;4421030;32;20188;-66
2021/05/28 00:33:53;;;;;;;40.00;20.70;;;;;;;;;;4418650;32;20656;-65
2021/05/28 00:36:18;;;;;;;34.60;19.98;;;;;;;;;;4425946;32;20165;-66
2021/05/28 00:38:43;;;;;;;34.27;19.07;;;;;;;;;;4428112;32;20712;-65
2021/05/28 00:41:10;;;;;;;41.13;21.60;;;;;;;;;;4414830;32;20157;-65
2021/05/28 00:43:35;;;;;;;40.05;19.25;;;;;;;;;;4421040;32;20468;-66
2021/05/28 00:46:00;;;;;;;31.20;17.20;;;;;;;;;;4408981;32;20219;-65
2021/05/28 00:48:25;;;;;;;30.20;16.97;;;;;;;;;;4422498;32;20168;-65
2021/05/28 00:50:51;;;;;;;27.13;16.23;;;;;;;;;;4427804;32;20212;-65
2021/05/28 00:53:16;;;;;;;29.70;17.07;;;;;;;;;;4437713;32;20133;-65
2021/05/28 00:55:41;;;;;;;29.70;14.43;;;;;;;;;;4436053;32;20512;-66
2021/05/28 00:58:07;;;;;;;34.93;16.37;;;;;;;;;;4435975;32;20137;-65
2021/05/28 01:00:33;;;;;;;28.17;15.43;;;;;;;;;;4435752;32;20191;-66
2021/05/28 01:02:58;;;;;;;26.93;14.20;;;;;;;;;;4436442;32;20150;-65
2021/05/28 01:05:23;;;;;;;24.50;14.67;;;;;;;;;;4437497;32;20138;-66
2021/05/28 01:07:48;;;;;;;31.43;14.67;;;;;;;;;;4437058;32;20137;-67
2021/05/28 01:10:14;;;;;;;23.97;13.83;;;;;;;;;;4431685;32;20199;-66
2021/05/28 01:12:40;;;;;;;30.83;16.00;;;;;;;;;;4421860;32;20134;-64
2021/05/28 01:15:06;;;;;;;25.93;14.10;;;;;;;;;;4406837;32;20192;-65
2021/05/28 01:17:31;;;;;;;27.20;15.03;;;;;;;;;;4425436;32;20183;-65
2021/05/28 01:19:56;;;;;;;26.80;15.07;;;;;;;;;;4422375;32;20515;-65
2021/05/28 01:22:22;;;;;;;29.10;16.27;;;;;;;;;;4421922;32;20616;-65
2021/05/28 01:24:47;;;;;;;27.33;14.70;;;;;;;;;;4421428;32;20568;-66
2021/05/28 01:27:12;;;;;;;27.50;14.23;;;;;;;;;;4421972;32;20169;-66
2021/05/28 01:29:38;;;;;;;27.57;14.07;;;;;;;;;;4421709;32;20157;-65
2021/05/28 01:32:03;;;;;;;26.97;15.63;;;;;;;;;;4420561;32;20538;-65
2021/05/28 01:34:28;;;;;;;30.33;15.37;;;;;;;;;;4421319;32;20137;-67
2021/05/28 01:36:54;;;;;;;30.73;15.90;;;;;;;;;;4422193;32;20156;-66
2021/05/28 01:39:19;;;;;;;25.97;15.07;;;;;;;;;;4433630;32;20446;-66
2021/05/28 01:41:44;;;;;;;27.10;13.83;;;;;;;;;;4433959;32;20142;-65
2021/05/28 01:44:10;;;;;;;29.97;14.03;;;;;;;;;;4421650;32;20198;-65
2021/05/28 01:46:35;;;;;;;27.43;14.33;;;;;;;;;;4427909;32;20542;-65
2021/05/28 01:49:02;;;;;;;27.13;14.00;;;;;;;;;;4434713;32;20126;-65
2021/05/28 01:51:28;;;;;;;25.53;13.57;;;;;;;;;;4416341;32;20188;-65
2021/05/28 01:53:53;;;;;;;24.83;15.43;;;;;;;;;;4420843;32;20168;-65
2021/05/28 01:56:18;;;;;;;27.23;13.83;;;;;;;;;;4429109;32;20238;-65
2021/05/28 01:58:43;;;;;;;24.20;15.67;;;;;;;;;;4434651;32;20298;-65
2021/05/28 02:01:08;;;;;;;23.77;13.70;;;;;;;;;;4418226;32;20188;-65
2021/05/28 02:03:33;;;;;;;26.30;13.60;;;;;;;;;;4420824;32;20310;-65
2021/05/28 02:05:59;;;;;;;20.37;12.90;;;;;;;;;;4434727;32;20137;-66
2021/05/28 02:08:24;;;;;;;31.30;14.07;;;;;;;;;;4427896;32;20690;-66
2021/05/28 02:10:49;;;;;;;24.67;14.90;;;;;;;;;;4415900;32;20236;-66
2021/05/28 02:13:14;;;;;;;28.43;15.57;;;;;;;;;;4436382;32;20201;-66
2021/05/28 02:15:40;;;;;;;26.23;14.40;;;;;;;;;;4436279;32;20172;-66
2021/05/28 02:18:05;;;;;;;25.20;14.57;;;;;;;;;;4423231;32;20169;-66
2021/05/28 02:20:31;;;;;;;23.93;14.33;;;;;;;;;;4435316;32;20134;-66
2021/05/28 02:22:56;;;;;;;29.33;15.97;;;;;;;;;;4433250;32;20167;-65
2021/05/28 02:25:21;;;;;;;29.83;16.43;;;;;;;;;;4430167;32;20145;-66
2021/05/28 02:27:46;;;;;;;29.67;16.70;;;;;;;;;;4431210;32;20567;-66
2021/05/28 02:30:12;;;;;;;28.17;16.90;;;;;;;;;;4405265;32;20166;-65
2021/05/28 02:32:37;;;;;;;27.37;16.07;;;;;;;;;;4406906;32;20284;-66
2021/05/28 02:35:03;;;;;;;29.13;17.37;;;;;;;;;;4422028;32;20201;-65
2021/05/28 02:37:29;;;;;;;30.27;17.50;;;;;;;;;;4432826;32;20198;-65
2021/05/28 02:39:54;;;;;;;29.07;17.33;;;;;;;;;;4423907;32;20142;-65
2021/05/28 02:42:20;;;;;;;32.00;18.37;;;;;;;;;;4429255;32;20176;-65
2021/05/28 02:44:45;;;;;;;26.40;16.20;;;;;;;;;;4418823;32;20173;-65
2021/05/28 02:47:10;;;;;;;30.53;18.10;;;;;;;;;;4405641;32;20169;-65
2021/05/28 02:49:36;;;;;;;28.70;16.30;;;;;;;;;;4405027;32;20244;-65
2021/05/28 02:52:02;;;;;;;30.07;17.37;;;;;;;;;;4420611;32;20150;-66
2021/05/28 02:54:28;;;;;;;33.13;18.73;;;;;;;;;;4419141;32;20153;-66
2021/05/28 02:56:53;;;;;;;35.33;19.00;;;;;;;;;;4418279;32;20347;-65
2021/05/28 02:59:18;;;;;;;30.90;18.23;;;;;;;;;;4435653;32;20156;-66
2021/05/28 03:01:43;;;;;;;28.50;18.63;;;;;;;;;;4434299;32;20141;-66
2021/05/28 03:04:08;;;;;;;32.83;18.83;;;;;;;;;;4433607;32;20441;-66
2021/05/28 03:06:34;;;;;;;31.70;18.83;;;;;;;;;;4433834;32;20248;-65
2021/05/28 03:08:59;;;;;;;49.13;24.57;;;;;;;;;;4424701;32;20547;-65
2021/05/28 03:11:24;;;;;;;37.47;20.70;;;;;;;;;;4424345;32;20227;-65
2021/05/28 03:13:49;;;;;;;39.47;21.43;;;;;;;;;;4435725;32;20240;-65
2021/05/28 03:16:14;;;;;;;34.87;20.37;;;;;;;;;;4434194;32;20133;-65
2021/05/28 03:19:01;;;;;;;34.50;19.90;;;;;;;;;;4425344;32;20184;-65
2021/05/28 03:23:54;;;;;;;36.90;20.53;;;;;;;;;;4427663;32;20162;-65
2021/05/28 03:26:20;;;;;;;32.43;19.97;;;;;;;;;;4420098;32;20191;-65
2021/05/28 03:28:46;;;;;;;39.10;21.33;;;;;;;;;;4419866;32;20488;-65
2021/05/28 03:31:11;;;;;;;41.90;22.40;;;;;;;;;;4404933;32;20192;-66
2021/05/28 03:33:36;;;;;;;47.10;24.47;;;;;;;;;;4418582;32;20142;-66
2021/05/28 03:36:02;;;;;;;44.00;22.43;;;;;;;;;;4419955;32;20536;-65
2021/05/28 03:38:27;;;;;;;35.33;20.47;;;;;;;;;;4427149;32;20641;-65
2021/05/28 03:40:52;;;;;;;44.60;23.77;;;;;;;;;;4423825;32;20502;-66
2021/05/28 03:43:17;;;;;;;44.53;23.93;;;;;;;;;;4418405;32;20516;-64
2021/05/28 03:45:42;;;;;;;40.40;21.63;;;;;;;;;;4418410;32;20199;-64
2021/05/28 03:48:08;;;;;;;39.67;21.47;;;;;;;;;;4419787;32;20514;-65
2021/05/28 03:50:33;;;;;;;38.87;21.70;;;;;;;;;;4418197;32;20225;-65
2021/05/28 03:52:58;;;;;;;38.77;20.47;;;;;;;;;;4418572;32;20131;-66
2021/05/28 03:55:23;;;;;;;37.30;22.10;;;;;;;;;;4419741;32;20222;-66
2021/05/28 03:57:48;;;;;;;56.93;27.10;;;;;;;;;;4424762;32;20225;-66
2021/05/28 04:00:14;;;;;;;54.50;27.80;;;;;;;;;;4421649;32;20630;-65
2021/05/28 04:02:39;;;;;;;40.93;22.00;;;;;;;;;;4430616;32;20592;-66
2021/05/28 04:05:05;;;;;;;39.07;23.37;;;;;;;;;;4408711;32;20166;-65
2021/05/28 04:07:30;;;;;;;41.93;22.60;;;;;;;;;;4405719;32;20162;-66
2021/05/28 04:09:55;;;;;;;42.77;22.87;;;;;;;;;;4420422;32;20507;-65
2021/05/28 04:12:20;;;;;;;41.87;23.33;;;;;;;;;;4427845;32;20233;-65
2021/05/28 04:14:45;;;;;;;47.20;24.67;;;;;;;;;;4419217;32;20261;-65
2021/05/28 04:17:10;;;;;;;56.53;27.33;;;;;;;;;;4419697;32;20149;-65
2021/05/28 04:19:36;;;;;;;53.73;27.30;;;;;;;;;;4418850;32;20150;-66
2021/05/28 04:22:01;;;;;;;41.47;23.60;;;;;;;;;;4405439;32;20302;-66
2021/05/28 04:24:26;;;;;;;55.83;27.53;;;;;;;;;;4420448;32;20146;-66
2021/05/28 04:26:51;;;;;;;52.20;27.10;;;;;;;;;;4418656;32;20130;-65
2021/05/28 04:29:18;;;;;;;51.20;26.70;;;;;;;;;;4424641;32;20280;-65
2021/05/28 04:31:43;;;;;;;49.23;25.00;;;;;;;;;;4421746;32;20231;-65
2021/05/28 04:34:09;;;;;;;51.03;26.40;;;;;;;;;;4418449;32;20150;-65
2021/05/28 04:36:34;;;;;;;57.80;27.93;;;;;;;;;;4404392;32;20207;-66
2021/05/28 04:38:59;;;;;;;54.60;28.00;;;;;;;;;;4443431;32;20145;-67
2021/05/28 04:41:24;;;;;;;57.27;29.40;;;;;;;;;;4435179;32;20180;-66
2021/05/28 04:43:49;;;;;;;45.53;25.73;;;;;;;;;;4421006;32;20165;-66
2021/05/28 04:46:14;;;;;;;54.22;25.37;;;;;;;;;;4429887;32;20138;-66
2021/05/28 04:48:40;;;;;;;55.25;26.45;;;;;;;;;;4419420;32;20230;-66
2021/05/28 04:51:05;;;;;;;47.65;24.67;;;;;;;;;;4420119;32;20285;-67
2021/05/28 04:53:30;;;;;;;47.37;25.03;;;;;;;;;;4418313;32;20130;-67
2021/05/28 04:55:55;;;;;;;44.17;24.77;;;;;;;;;;4421115;32;20165;-66
2021/05/28 04:58:20;;;;;;;45.45;24.63;;;;;;;;;;4428873;32;20182;-65
2021/05/28 05:00:46;;;;;;;46.08;24.60;;;;;;;;;;4432636;32;20234;-66
2021/05/28 05:03:11;;;;;;;47.85;24.50;;;;;;;;;;4419817;32;20319;-67
2021/05/28 05:05:36;;;;;;;40.97;22.95;;;;;;;;;;4424122;32;20299;-66
2021/05/28 05:08:01;;;;;;;45.12;25.35;;;;;;;;;;4419692;32;20213;-66
2021/05/28 05:10:26;;;;;;;41.95;21.25;;;;;;;;;;4407928;32;20164;-65
2021/05/28 05:12:52;;;;;;;38.17;21.20;;;;;;;;;;4420321;32;20350;-67
2021/05/28 05:15:17;;;;;;;35.95;20.77;;;;;;;;;;4419704;32;20261;-65
2021/05/28 05:17:42;;;;;;;31.40;19.25;;;;;;;;;;4410648;32;20280;-65
2021/05/28 05:20:08;;;;;;;33.92;20.85;;;;;;;;;;4433044;32;20519;-65
2021/05/28 05:22:34;;;;;;;36.30;20.77;;;;;;;;;;4434031;32;20181;-65
2021/05/28 05:24:59;;;;;;;34.45;20.50;;;;;;;;;;4431238;32;20261;-66
2021/05/28 05:27:24;;;;;;;33.92;20.33;;;;;;;;;;4421915;32;20137;-66
2021/05/28 05:29:49;;;;;;;32.55;18.73;;;;;;;;;;4438019;32;20653;-66
2021/05/28 05:32:15;;;;;;;33.42;19.80;;;;;;;;;;4437702;32;20168;-67
2021/05/28 05:34:40;;;;;;;30.50;17.30;;;;;;;;;;4422952;32;20207;-66
2021/05/28 05:37:05;;;;;;;28.42;17.33;;;;;;;;;;4426626;32;20145;-66
2021/05/28 05:39:32;;;;;;;36.55;18.70;;;;;;;;;;4422008;32;20164;-66
2021/05/28 05:41:59;;;;;;;26.00;16.20;;;;;;;;;;4431617;32;20154;-66
2021/05/28 05:44:24;;;;;;;27.85;15.20;;;;;;;;;;4436233;32;20171;-68
2021/05/28 05:46:50;;;;;;;23.80;15.40;;;;;;;;;;4435752;32;20542;-66
2021/05/28 05:49:16;;;;;;;26.08;14.85;;;;;;;;;;4433224;32;20168;-66
2021/05/28 05:51:41;;;;;;;32.90;15.70;;;;;;;;;;4421626;32;20205;-67
2021/05/28 05:54:06;;;;;;;24.52;14.05;;;;;;;;;;4421725;32;20277;-66
2021/05/28 05:56:31;;;;;;;21.87;13.32;;;;;;;;;;4434505;32;20466;-66
2021/05/28 05:58:56;;;;;;;22.98;14.05;;;;;;;;;;4437953;32;20129;-66
2021/05/28 06:01:22;;;;;;;22.52;11.23;;;;;;;;;;4432375;32;20623;-68
2021/05/28 06:03:47;;;;;;;13.88;8.45;;;;;;;;;;4420087;32;20150;-66
2021/05/28 06:06:12;;;;;;;15.10;8.63;;;;;;;;;;4421318;32;20129;-66
2021/05/28 06:08:38;;;;;;;16.98;9.63;;;;;;;;;;4436897;32;20308;-66
2021/05/28 06:11:03;;;;;;;24.23;9.35;;;;;;;;;;4437080;32;20270;-66
2021/05/28 06:13:28;;;;;;;18.25;9.60;;;;;;;;;;4418327;32;20161;-66
2021/05/28 06:15:53;;;;;;;20.48;9.38;;;;;;;;;;4436547;32;20138;-66
2021/05/28 06:18:18;;;;;;;18.10;9.27;;;;;;;;;;4427191;32;20436;-65
2021/05/28 06:20:44;;;;;;;14.87;8.80;;;;;;;;;;4404981;32;20223;-66
2021/05/28 06:23:10;;;;;;;17.73;9.57;;;;;;;;;;4424575;32;20175;-65
2021/05/28 06:25:36;;;;;;;16.30;8.73;;;;;;;;;;4435657;32;20133;-66
2021/05/28 06:28:01;;;;;;;15.98;9.20;;;;;;;;;;4433940;32;20277;-66
2021/05/28 06:30:26;;;;;;;17.25;8.68;;;;;;;;;;4408770;32;20189;-66
2021/05/28 06:32:52;;;;;;;15.05;8.07;;;;;;;;;;4425209;32;20153;-66
2021/05/28 06:35:17;;;;;;;16.23;8.20;;;;;;;;;;4419119;32;20201;-66
2021/05/28 06:37:42;;;;;;;12.52;8.27;;;;;;;;;;4406632;32;20193;-66
2021/05/28 06:40:08;;;;;;;24.15;9.32;;;;;;;;;;4405052;32;20635;-66
2021/05/28 06:42:33;;;;;;;16.52;8.63;;;;;;;;;;4429231;32;20570;-65
2021/05/28 06:44:59;;;;;;;15.75;8.98;;;;;;;;;;4419900;32;20165;-65
2021/05/28 06:47:25;;;;;;;13.62;7.95;;;;;;;;;;4427976;32;20172;-66
2021/05/28 06:49:50;;;;;;;16.42;9.50;;;;;;;;;;4435415;32;20564;-66
2021/05/28 06:52:15;;;;;;;17.35;9.25;;;;;;;;;;4433640;32;20132;-65
2021/05/28 06:54:40;;;;;;;20.07;9.53;;;;;;;;;;4417751;32;20220;-66
2021/05/28 06:57:06;;;;;;;17.45;9.60;;;;;;;;;;4425169;32;20244;-66
2021/05/28 06:59:31;;;;;;;10.47;8.07;;;;;;;;;;4434060;32;20279;-65
2021/05/28 07:01:56;;;;;;;18.08;9.02;;;;;;;;;;4427475;32;20674;-66
2021/05/28 07:04:22;;;;;;;11.85;8.32;;;;;;;;;;4427598;32;20171;-68
2021/05/28 07:06:47;;;;;;;13.90;8.60;;;;;;;;;;4430007;32;20601;-68
2021/05/28 07:09:12;;;;;;;18.12;9.40;;;;;;;;;;4431809;32;20223;-66
2021/05/28 07:11:37;;;;;;;14.18;9.05;;;;;;;;;;4433990;32;20149;-66
2021/05/28 07:14:03;;;;;;;18.23;9.82;;;;;;;;;;4434391;32;20196;-66
2021/05/28 07:16:28;;;;;;;19.37;11.10;;;;;;;;;;4435081;32;20199;-66
2021/05/28 07:18:53;;;;;;;16.77;9.48;;;;;;;;;;4433149;32;20493;-66
2021/05/28 07:21:19;;;;;;;13.27;8.77;;;;;;;;;;4432360;32;20295;-65
2021/05/28 07:23:44;;;;;;;15.23;8.63;;;;;;;;;;4435502;32;20130;-65
2021/05/28 07:26:09;;;;;;;17.55;8.38;;;;;;;;;;4437065;32;20134;-66
2021/05/28 07:28:34;;;;;;;14.18;8.38;;;;;;;;;;4436828;32;20289;-67
2021/05/28 07:30:59;;;;;;;15.75;8.27;;;;;;;;;;4436974;32;20490;-67
2021/05/28 07:33:25;;;;;;;20.00;8.93;;;;;;;;;;4422136;32;20165;-67
2021/05/28 07:35:50;;;;;;;17.65;9.30;;;;;;;;;;4408327;32;20189;-68
2021/05/28 07:38:15;;;;;;;13.97;7.90;;;;;;;;;;4434727;32;20200;-66
2021/05/28 07:40:41;;;;;;;12.65;7.47;;;;;;;;;;4419773;32;20375;-66
2021/05/28 07:43:06;;;;;;;13.00;7.78;;;;;;;;;;4428231;32;20194;-66
2021/05/28 07:45:32;;;;;;;10.30;7.80;;;;;;;;;;4427450;32;20485;-66
2021/05/28 07:47:57;;;;;;;12.73;7.25;;;;;;;;;;4421006;32;20160;-66
2021/05/28 07:50:23;;;;;;;13.05;7.20;;;;;;;;;;4405522;32;20275;-66
2021/05/28 07:52:48;;;;;;;15.43;7.90;;;;;;;;;;4420679;32;20710;-65
2021/05/28 07:55:13;;;;;;;10.45;5.97;;;;;;;;;;4420450;32;20487;-65
2021/05/28 07:57:39;;;;;;;9.25;5.93;;;;;;;;;;4424295;32;20141;-65
2021/05/28 08:00:05;;;;;;;12.95;6.55;;;;;;;;;;4415757;32;20246;-66
2021/05/28 08:02:30;;;;;;;9.45;6.00;;;;;;;;;;4419979;32;20207;-67
2021/05/28 08:04:55;;;;;;;9.38;6.15;;;;;;;;;;4421253;32;20142;-66
2021/05/28 08:07:20;;;;;;;8.82;4.50;;;;;;;;;;4420786;32;20663;-66
2021/05/28 08:09:47;;;;;;;10.38;4.53;;;;;;;;;;4419049;32;20130;-66
2021/05/28 08:12:12;;;;;;;8.70;5.45;;;;;;;;;;4422975;32;20177;-65
2021/05/28 08:14:37;;;;;;;9.10;5.30;;;;;;;;;;4433683;32;20145;-66
2021/05/28 08:17:02;;;;;;;7.95;4.70;;;;;;;;;;4433133;32;20252;-65
2021/05/28 08:19:28;;;;;;;7.65;5.43;;;;;;;;;;4434339;32;20629;-66
2021/05/28 08:21:53;;;;;;;7.82;5.43;;;;;;;;;;4433587;32;20323;-66
2021/05/28 08:24:18;;;;;;;9.98;5.75;;;;;;;;;;4419979;32;20173;-66
2021/05/28 08:26:43;;;;;;;15.40;6.03;;;;;;;;;;4433913;32;20270;-65
2021/05/28 08:29:09;;;;;;;10.25;6.00;;;;;;;;;;4418940;32;20138;-66
2021/05/28 08:31:34;;;;;;;14.27;6.35;;;;;;;;;;4418184;32;20150;-66
2021/05/28 08:33:59;;;;;;;9.48;5.20;;;;;;;;;;4404030;32;20215;-66
2021/05/28 08:36:25;;;;;;;10.70;5.85;;;;;;;;;;4404286;32;20591;-65
2021/05/28 08:38:50;;;;;;;10.57;6.22;;;;;;;;;;4430465;32;20145;-66
2021/05/28 08:41:15;;;;;;;7.65;5.35;;;;;;;;;;4433744;32;20187;-67
2021/05/28 08:43:44;;;;;;;7.65;5.18;;;;;;;;;;4434659;32;20184;-67
2021/05/28 08:46:11;;;;;;;8.75;5.07;;;;;;;;;;4425027;32;20208;-65
2021/05/28 08:48:37;;;;;;;6.95;4.05;;;;;;;;;;4419254;32;20138;-66
2021/05/28 08:51:02;;;;;;;9.05;4.35;;;;;;;;;;4429553;32;20442;-65
2021/05/28 08:53:28;;;;;;;7.85;4.10;;;;;;;;;;4418182;32;20162;-66
2021/05/28 08:55:53;;;;;;;6.53;3.90;;;;;;;;;;4433951;32;20172;-66
2021/05/28 08:58:21;;;;;;;8.15;3.92;;;;;;;;;;4434151;32;20221;-66
2021/05/28 09:00:47;;;;;;;5.32;2.92;;;;;;;;;;4429804;32;20176;-66
2021/05/28 09:03:19;;;;;;;5.57;2.80;;;;;;;;;;4421290;32;20778;-67
2021/05/28 09:05:45;;;;;;;5.47;3.28;;;;;;;;;;4407491;32;20192;-66
2021/05/28 09:08:10;;;;;;;5.97;3.22;;;;;;;;;;4420903;32;20134;-65
2021/05/28 09:10:37;;;;;;;18.87;4.72;;;;;;;;;;4421451;32;20134;-66
2021/05/28 09:13:13;;;;;;;6.68;3.20;;;;;;;;;;4422609;32;20557;-66
2021/05/28 09:15:39;;;;;;;4.80;3.20;;;;;;;;;;4423958;32;20155;-65
2021/05/28 09:18:05;;;;;;;3.25;2.50;;;;;;;;;;4421217;32;20555;-66
2021/05/28 09:20:30;;;;;;;3.15;2.00;;;;;;;;;;4422919;32;20138;-67
2021/05/28 09:23:26;;;;;;;4.28;2.42;;;;;;;;;;4405635;32;20517;-66
2021/05/28 09:25:51;;;;;;;5.82;3.30;;;;;;;;;;4410419;32;20650;-66
2021/05/28 09:28:16;;;;;;;5.57;3.20;;;;;;;;;;4418972;32;20248;-66
2021/05/28 09:30:42;;;;;;;4.32;3.20;;;;;;;;;;4423349;32;20176;-66
2021/05/28 09:33:17;;;;;;;5.90;3.03;;;;;;;;;;4409062;32;20257;-66
2021/05/28 09:35:42;;;;;;;4.15;2.72;;;;;;;;;;4420564;32;20532;-66
2021/05/28 09:38:07;;;;;;;5.10;3.07;;;;;;;;;;4428699;32;20212;-66
2021/05/28 09:40:42;;;;;;;5.60;3.17;;;;;;;;;;4436853;32;20276;-65
2021/05/28 09:43:12;;;;;;;6.18;2.92;;;;;;;;;;4436639;32;20128;-66
2021/05/28 09:45:39;;;;;;;6.78;3.30;;;;;;;;;;4425282;32;20533;-66
2021/05/28 09:48:21;;;;;;;8.43;4.03;;;;;;;;;;4418892;32;20142;-66
2021/05/28 09:50:49;;;;;;;6.60;3.28;;;;;;;;;;4420661;32;20189;-65
2021/05/28 09:53:28;;;;;;;6.12;3.75;;;;;;;;;;4420111;32;20165;-65
2021/05/28 09:55:53;;;;;;;8.32;4.03;;;;;;;;;;4406090;32;20653;-66
2021/05/28 09:58:19;;;;;;;6.87;4.37;;;;;;;;;;4405526;32;20188;-67
2021/05/28 10:00:44;;;;;;;6.78;3.80;;;;;;;;;;4411641;32;20582;-66
2021/05/28 10:03:10;;;;;;;5.25;3.55;;;;;;;;;;4424803;32;20449;-65
2021/05/28 10:05:40;;;;;;;6.68;3.40;;;;;;;;;;4417885;32;20284;-66
2021/05/28 10:08:09;;;;;;;5.35;3.35;;;;;;;;;;4420103;32;20217;-67
2021/05/28 10:10:36;;;;;;;6.30;3.80;;;;;;;;;;4420628;32;20204;-68
2021/05/28 10:13:09;;;;;;;4.37;2.50;;;;;;;;;;4426418;32;20145;-68
2021/05/28 10:15:34;;;;;;;3.15;2.60;;;;;;;;;;4433308;32;20226;-65
2021/05/28 10:18:01;;;;;;;4.32;2.37;;;;;;;;;;4429354;32;21777;-66
2021/05/28 10:20:26;;;;;;;8.63;3.37;;;;;;;;;;4431048;32;20189;-67
2021/05/28 10:22:51;;;;;;;5.85;3.55;;;;;;;;;;4414203;32;20503;-67
2021/05/28 10:25:16;;;;;;;6.72;3.65;;;;;;;;;;4426232;32;20217;-65
2021/05/28 10:27:50;;;;;;;5.85;2.65;;;;;;;;;;4428470;32;20237;-65
2021/05/28 10:30:16;;;;;;;5.05;2.60;;;;;;;;;;4420216;32;20226;-67
2021/05/28 10:32:41;;;;;;;6.05;3.22;;;;;;;;;;4418804;32;20164;-66
2021/05/28 10:35:06;;;;;;;5.10;2.80;;;;;;;;;;4420333;32;20168;-68
2021/05/28 10:37:32;;;;;;;5.05;2.90;;;;;;;;;;4418179;32;20175;-67
2021/05/28 10:39:57;;;;;;;5.25;3.10;;;;;;;;;;4418125;32;20161;-67
2021/05/28 10:42:22;;;;;;;7.80;3.67;;;;;;;;;;4433248;32;20901;-67
2021/05/28 10:44:48;;;;;;;6.10;3.60;;;;;;;;;;4424062;32;20137;-66
2021/05/28 10:47:13;;;;;;;4.55;3.35;;;;;;;;;;4434424;32;20176;-65
2021/05/28 10:49:42;;;;;;;5.32;3.40;;;;;;;;;;4431711;32;20217;-65
2021/05/28 10:52:08;;;;;;;3.28;2.83;;;;;;;;;;4407400;32;20153;-66
2021/05/28 10:54:34;;;;;;;11.25;10.15;;;;;;;;;;4420734;32;20219;-66
2021/05/28 10:57:19;;;;;;;4.60;3.37;;;;;;;;;;4405040;32;20178;-67
2021/05/28 10:59:45;;;;;;;9.10;3.90;;;;;;;;;;4428373;32;20212;-66
2021/05/28 11:02:10;;;;;;;4.55;3.05;;;;;;;;;;4428872;32;20519;-66
2021/05/28 11:04:35;;;;;;;5.30;3.03;;;;;;;;;;4429063;32;20149;-67
2021/05/28 11:07:02;;;;;;;4.57;3.60;;;;;;;;;;4418321;32;20597;-67
2021/05/28 11:09:54;;;;;;;7.32;3.40;;;;;;;;;;4429141;32;20176;-65
2021/05/28 11:12:25;;;;;;;6.40;3.05;;;;;;;;;;4429168;32;20169;-67
2021/05/28 11:15:10;;;;;;;4.93;3.20;;;;;;;;;;4404592;32;20169;-67
2021/05/28 11:17:50;;;;;;;6.35;3.35;;;;;;;;;;4421141;32;20219;-66
2021/05/28 11:20:21;;;;;;;3.92;2.97;;;;;;;;;;4427384;32;20141;-66
2021/05/28 11:22:46;;;;;;;4.53;2.50;;;;;;;;;;4404381;32;20165;-66
2021/05/28 11:25:14;;;;;;;6.65;2.75;;;;;;;;;;4431715;32;20172;-66
2021/05/28 11:27:40;;;;;;;4.53;2.72;;;;;;;;;;4419726;32;20161;-66
2021/05/28 11:30:05;;;;;;;4.25;2.53;;;;;;;;;;4433018;32;20138;-67
2021/05/28 11:32:33;;;;;;;3.42;2.05;;;;;;;;;;4433283;32;20157;-66
2021/05/28 11:35:10;;;;;;;3.75;2.20;;;;;;;;;;4433307;32;20230;-66
2021/05/28 11:37:42;;;;;;;3.35;2.10;;;;;;;;;;4423899;32;20150;-69
2021/05/28 11:40:15;;;;;;;4.55;2.50;;;;;;;;;;4432063;32;20194;-66
2021/05/28 11:42:41;;;;;;;3.03;1.90;;;;;;;;;;4431092;32;20224;-65
2021/05/28 11:45:07;;;;;;;3.05;1.77;;;;;;;;;;4429165;32;20218;-66
2021/05/28 11:47:33;;;;;;;2.17;1.83;;;;;;;;;;4419664;32;20505;-65
2021/05/28 11:49:59;;;;;;;6.80;2.40;;;;;;;;;;4428256;32;20581;-67
2021/05/28 11:52:24;;;;;;;3.78;2.90;;;;;;;;;;4416868;32;20502;-66
2021/05/28 11:55:02;;;;;;;5.15;2.50;;;;;;;;;;4404770;32;20170;-66
2021/05/28 11:57:27;;;;;;;2.78;2.30;;;;;;;;;;4418107;32;20328;-65
2021/05/28 11:59:56;;;;;;;4.87;2.30;;;;;;;;;;4432111;32;20185;-66
2021/05/28 12:02:41;;;;;;;4.12;2.60;;;;;;;;;;4430150;32;20271;-66
2021/05/28 12:05:13;;;;;;;3.37;2.12;;;;;;;;;;4421824;32;20173;-67
2021/05/28 12:07:38;;;;;;;4.80;2.28;;;;;;;;;;4440379;32;20187;-66
2021/05/28 12:10:04;;;;;;;5.83;2.60;;;;;;;;;;4433761;32;20590;-65
2021/05/28 12:12:48;;;;;;;4.62;2.15;;;;;;;;;;4448631;32;20224;-66
2021/05/28 12:15:13;;;;;;;4.03;2.08;;;;;;;;;;4448447;32;20172;-66
2021/05/28 12:17:39;;;;;;;3.55;2.40;;;;;;;;;;4432279;32;20176;-66
2021/05/28 12:20:14;;;;;;;5.22;2.40;;;;;;;;;;4432766;32;20297;-67
2021/05/28 12:22:57;;;;;;;5.65;2.72;;;;;;;;;;4420377;32;20214;-67
2021/05/28 12:25:22;;;;;;;5.78;2.60;;;;;;;;;;4405023;32;20157;-66
2021/05/28 12:27:48;;;;;;;3.42;2.40;;;;;;;;;;4402926;32;20178;-66
2021/05/28 12:30:16;;;;;;;3.35;2.40;;;;;;;;;;4418932;32;20289;-66
2021/05/28 12:32:41;;;;;;;3.30;2.25;;;;;;;;;;4418104;32;20130;-65
2021/05/28 12:35:07;;;;;;;4.32;2.50;;;;;;;;;;4416200;32;20160;-65
2021/05/28 12:37:32;;;;;;;2.60;2.33;;;;;;;;;;4420665;32;20156;-66
2021/05/28 12:40:07;;;;;;;3.60;2.05;;;;;;;;;;4420264;32;20177;-68
2021/05/28 12:42:32;;;;;;;4.03;2.28;;;;;;;;;;4422346;32;20141;-66
2021/05/28 12:45:08;;;;;;;3.20;2.50;;;;;;;;;;4416047;32;20232;-66
2021/05/28 12:47:43;;;;;;;3.70;2.70;;;;;;;;;;4436960;32;20254;-67
2021/05/28 12:50:23;;;;;;;3.92;2.20;;;;;;;;;;4431744;32;20182;-66
2021/05/28 12:52:54;;;;;;;5.10;2.37;;;;;;;;;;4419982;32;20165;-66
2021/05/28 12:55:34;;;;;;;5.47;2.67;;;;;;;;;;4427965;32;20615;-68
2021/05/28 12:58:00;;;;;;;3.55;2.30;;;;;;;;;;4423853;32;20332;-66
2021/05/28 13:00:35;;;;;;;4.07;2.20;;;;;;;;;;4428685;32;20149;-67
2021/05/28 13:03:01;;;;;;;2.78;1.83;;;;;;;;;;4429168;32;20642;-66
2021/05/28 13:05:31;;;;;;;3.20;1.85;;;;;;;;;;4424142;32;20196;-66
2021/05/28 13:07:56;;;;;;;4.05;2.37;;;;;;;;;;4432334;32;20198;-67
2021/05/28 13:10:22;;;;;;;2.05;1.70;;;;;;;;;;4422769;32;20165;-67
2021/05/28 13:12:48;;;;;;;3.87;2.20;;;;;;;;;;4431925;32;20207;-66
2021/05/28 13:15:20;;;;;;;3.25;1.90;;;;;;;;;;4435275;32;20490;-66
2021/05/28 13:17:52;;;;;;;3.37;2.60;;;;;;;;;;4433942;32;20161;-67
2021/05/28 13:20:18;;;;;;;3.50;1.67;;;;;;;;;;4436287;32;20126;-67
2021/05/28 13:22:51;;;;;;;4.30;1.80;;;;;;;;;;4436149;32;20192;-67
2021/05/28 13:25:37;;;;;;;2.28;2.00;;;;;;;;;;4421443;32;20200;-67
2021/05/28 13:28:02;;;;;;;2.67;1.90;;;;;;;;;;4419776;32;20229;-67
2021/05/28 13:30:46;;;;;;;3.17;2.37;;;;;;;;;;4435034;32;20520;-67
2021/05/28 13:33:15;;;;;;;3.00;2.20;;;;;;;;;;4425171;32;20149;-67
2021/05/28 13:35:40;;;;;;;2.80;2.12;;;;;;;;;;4417859;32;20142;-67
2021/05/28 13:38:05;;;;;;;3.65;2.25;;;;;;;;;;4417731;32;20199;-67
2021/05/28 13:40:30;;;;;;;4.00;2.50;;;;;;;;;;4419895;32;20206;-66
2021/05/28 13:42:56;;;;;;;2.63;1.80;;;;;;;;;;4418379;32;20126;-65
2021/05/28 13:45:21;;;;;;;3.10;1.70;;;;;;;;;;4421394;32;20360;-67
2021/05/28 13:47:46;;;;;;;3.70;1.90;;;;;;;;;;4419203;32;20217;-66
2021/05/28 13:50:12;;;;;;;3.33;1.58;;;;;;;;;;4421888;32;20146;-66
2021/05/28 13:52:38;;;;;;;1.77;1.33;;;;;;;;;;4433268;32;20137;-66
2021/05/28 13:55:03;;;;;;;2.20;1.60;;;;;;;;;;4433710;32;20233;-66
2021/05/28 13:57:28;;;;;;;3.85;1.58;;;;;;;;;;4425702;32;20150;-66
2021/05/28 13:59:54;;;;;;;2.87;1.50;;;;;;;;;;4432203;32;20146;-66
2021/05/28 14:02:19;;;;;;;2.07;1.30;;;;;;;;;;4432773;32;20137;-67
2021/05/28 14:04:44;;;;;;;3.28;1.40;;;;;;;;;;4421516;32;20558;-66
2021/05/28 14:07:09;;;;;;;2.28;1.60;;;;;;;;;;4419736;32;20157;-65
2021/05/28 14:09:35;;;;;;;7.50;1.80;;;;;;;;;;4420625;32;20168;-65
2021/05/28 14:12:00;;;;;;;3.25;1.60;;;;;;;;;;4412320;32;20268;-66
2021/05/28 14:14:25;;;;;;;3.08;1.40;;;;;;;;;;4434126;32;20598;-65
2021/05/28 14:16:51;;;;;;;2.47;1.80;;;;;;;;;;4428142;32;20153;-66
2021/05/28 14:19:16;;;;;;;3.20;2.30;;;;;;;;;;4418673;32;20131;-67
2021/05/28 14:21:42;;;;;;;3.40;2.20;;;;;;;;;;4422852;32;20142;-66
2021/05/28 14:24:07;;;;;;;3.33;1.90;;;;;;;;;;4433892;32;20624;-66
2021/05/28 14:26:32;;;;;;;3.60;1.80;;;;;;;;;;4433252;32;20392;-67
2021/05/28 14:28:58;;;;;;;3.10;1.90;;;;;;;;;;4415415;32;20514;-66
2021/05/28 14:31:23;;;;;;;2.58;2.10;;;;;;;;;;4428846;32;20195;-68